createdAt,value
2023-07-06T00:00:27.368Z,0.00
2023-07-06T00:01:27.414Z,0.00
2023-07-06T00:02:27.401Z,0.00
2023-07-06T00:03:27.393Z,0.00
2023-07-06T00:04:27.390Z,0.00
2023-07-06T00:05:27.325Z,0.00
2023-07-06T00:06:27.330Z,0.00
2023-07-06T00:07:27.288Z,0.00
2023-07-06T00:08:27.270Z,0.00
2023-07-06T00:09:27.313Z,0.00
2023-07-06T00:10:27.243Z,0.00
2023-07-06T00:11:27.256Z,0.00
2023-07-06T00:12:27.249Z,0.00
2023-07-06T00:13:27.262Z,0.00
2023-07-06T00:14:27.225Z,0.00
2023-07-06T00:15:27.888Z,0.00
2023-07-06T00:16:27.235Z,0.00
2023-07-06T00:17:27.227Z,0.00
2023-07-06T00:18:27.203Z,0.00
2023-07-06T00:19:27.161Z,0.00
2023-07-06T00:20:27.140Z,0.00
2023-07-06T00:21:27.131Z,0.00
2023-07-06T00:22:27.115Z,0.00
2023-07-06T00:23:27.121Z,0.00
2023-07-06T00:24:27.146Z,0.00
2023-07-06T00:25:27.128Z,0.00
2023-07-06T00:26:27.077Z,0.00
2023-07-06T00:27:27.116Z,0.00
2023-07-06T00:28:27.071Z,0.00
2023-07-06T00:29:27.067Z,0.00
2023-07-06T00:30:27.065Z,0.00
2023-07-06T00:31:27.077Z,0.00
2023-07-06T00:32:27.095Z,0.00
2023-07-06T00:33:27.001Z,0.00
2023-07-06T00:34:26.993Z,0.00
2023-07-06T00:35:27.039Z,0.00
2023-07-06T00:36:26.968Z,0.00
2023-07-06T00:37:27.022Z,0.00
2023-07-06T00:38:26.990Z,0.00
2023-07-06T00:39:26.930Z,0.00
2023-07-06T00:40:26.917Z,0.00
2023-07-06T00:41:26.952Z,0.00
2023-07-06T00:42:26.913Z,0.00
2023-07-06T00:43:26.907Z,0.00
2023-07-06T00:44:26.919Z,0.00
2023-07-06T00:45:26.890Z,0.00
2023-07-06T00:46:26.903Z,0.00
2023-07-06T00:47:26.895Z,0.00
2023-07-06T00:48:26.854Z,0.00
2023-07-06T00:49:26.834Z,0.00
2023-07-06T00:50:26.831Z,0.00
2023-07-06T00:51:26.815Z,0.00
2023-07-06T00:52:26.822Z,0.00
2023-07-06T00:53:26.794Z,0.00
2023-07-06T00:54:26.776Z,0.00
2023-07-06T00:55:26.790Z,0.00
2023-07-06T00:56:26.799Z,0.00
2023-07-06T00:57:26.772Z,0.00
2023-07-06T00:58:26.728Z,0.00
2023-07-06T00:59:26.728Z,0.00
2023-07-06T01:00:26.732Z,0.00
2023-07-06T01:01:26.746Z,0.00
2023-07-06T01:02:26.790Z,0.00
2023-07-06T01:03:26.825Z,0.00
2023-07-06T01:04:26.710Z,0.00
2023-07-06T01:05:26.668Z,0.00
2023-07-06T01:06:26.642Z,0.00
2023-07-06T01:07:26.647Z,0.00
2023-07-06T01:08:26.617Z,0.00
2023-07-06T01:09:27.362Z,0.00
2023-07-06T01:10:26.710Z,0.00
2023-07-06T01:11:26.591Z,0.00
2023-07-06T01:12:26.572Z,0.00
2023-07-06T01:13:26.630Z,0.00
2023-07-06T01:14:26.567Z,0.00
2023-07-06T01:15:26.562Z,0.00
2023-07-06T01:16:26.738Z,0.00
2023-07-06T01:17:26.714Z,0.00
2023-07-06T01:18:26.525Z,0.00
2023-07-06T01:19:26.530Z,0.00
2023-07-06T01:20:26.487Z,0.00
2023-07-06T01:21:26.484Z,0.00
2023-07-06T01:22:26.508Z,0.00
2023-07-06T01:23:26.459Z,0.00
2023-07-06T01:24:26.486Z,0.00
2023-07-06T01:25:26.438Z,0.00
2023-07-06T01:26:26.430Z,0.00
2023-07-06T01:27:26.429Z,0.00
2023-07-06T01:28:26.439Z,0.00
2023-07-06T01:29:26.415Z,0.00
2023-07-06T01:30:26.424Z,0.00
2023-07-06T01:31:26.428Z,0.00
2023-07-06T01:32:26.440Z,0.00
2023-07-06T01:33:26.346Z,0.00
2023-07-06T01:34:26.338Z,0.00
2023-07-06T01:35:26.322Z,0.00
2023-07-06T01:36:26.348Z,0.00
2023-07-06T01:37:26.307Z,0.00
2023-07-06T01:38:26.297Z,0.00
2023-07-06T01:39:26.360Z,0.00
2023-07-06T01:40:26.338Z,0.00
2023-07-06T01:41:26.275Z,0.00
2023-07-06T01:42:26.257Z,0.00
2023-07-06T01:43:26.247Z,0.00
2023-07-06T01:44:26.236Z,0.00
2023-07-06T01:45:26.263Z,0.00
2023-07-06T01:46:26.284Z,0.00
2023-07-06T01:47:26.245Z,0.00
2023-07-06T01:48:26.210Z,0.00
2023-07-06T01:49:26.176Z,0.00
2023-07-06T01:50:26.236Z,0.00
2023-07-06T01:51:26.156Z,0.00
2023-07-06T01:52:26.168Z,0.00
2023-07-06T01:53:26.155Z,0.00
2023-07-06T01:54:26.128Z,0.00
2023-07-06T01:55:26.165Z,0.00
2023-07-06T01:56:26.147Z,0.00
2023-07-06T01:57:26.098Z,0.00
2023-07-06T01:58:26.138Z,0.00
2023-07-06T01:59:26.868Z,0.00
2023-07-06T02:00:26.068Z,0.00
2023-07-06T02:01:26.077Z,0.00
2023-07-06T02:02:26.453Z,0.00
2023-07-06T02:03:26.129Z,0.00
2023-07-06T02:04:26.045Z,0.00
2023-07-06T02:05:26.012Z,0.00
2023-07-06T02:06:26.006Z,0.00
2023-07-06T02:07:25.999Z,0.00
2023-07-06T02:08:25.987Z,0.00
2023-07-06T02:09:25.996Z,0.00
2023-07-06T02:10:26.002Z,0.00
2023-07-06T02:11:26.117Z,0.00
2023-07-06T02:12:25.928Z,0.00
2023-07-06T02:13:25.940Z,0.00
2023-07-06T02:14:25.916Z,0.00
2023-07-06T02:15:25.923Z,0.00
2023-07-06T02:16:30.968Z,0.00
2023-07-06T02:17:25.887Z,0.00
2023-07-06T02:18:25.912Z,0.00
2023-07-06T02:19:25.896Z,0.00
2023-07-06T02:20:25.907Z,0.00
2023-07-06T02:21:25.848Z,0.00
2023-07-06T02:22:25.912Z,0.00
2023-07-06T02:23:25.813Z,0.00
2023-07-06T02:24:25.801Z,0.00
2023-07-06T02:25:25.788Z,0.00
2023-07-06T02:26:25.784Z,0.00
2023-07-06T02:27:25.762Z,0.00
2023-07-06T02:28:25.785Z,0.00
2023-07-06T02:29:25.743Z,0.00
2023-07-06T02:30:25.729Z,0.00
2023-07-06T02:31:25.718Z,0.00
2023-07-06T02:32:25.752Z,0.00
2023-07-06T02:33:25.729Z,0.00
2023-07-06T02:34:25.694Z,0.00
2023-07-06T02:35:25.686Z,0.00
2023-07-06T02:36:25.711Z,0.00
2023-07-06T02:37:25.657Z,0.00
2023-07-06T02:38:25.672Z,0.00
2023-07-06T02:39:26.114Z,0.00
2023-07-06T02:40:25.659Z,0.00
2023-07-06T02:41:25.636Z,0.00
2023-07-06T02:42:25.674Z,0.00
2023-07-06T02:43:25.603Z,0.00
2023-07-06T02:44:25.586Z,0.00
2023-07-06T02:45:25.590Z,0.00
2023-07-06T02:46:25.713Z,0.00
2023-07-06T02:47:25.564Z,0.00
2023-07-06T02:48:25.567Z,0.00
2023-07-06T02:49:25.548Z,0.00
2023-07-06T02:50:25.542Z,0.00
2023-07-06T02:51:25.509Z,0.00
2023-07-06T02:52:25.527Z,0.00
2023-07-06T02:53:25.488Z,0.00
2023-07-06T02:54:25.508Z,0.00
2023-07-06T02:55:25.465Z,0.00
2023-07-06T02:56:25.462Z,0.00
2023-07-06T02:57:25.437Z,0.00
2023-07-06T02:58:25.450Z,0.00
2023-07-06T02:59:25.444Z,0.00
2023-07-06T03:00:25.425Z,0.00
2023-07-06T03:01:25.939Z,0.00
2023-07-06T03:02:25.420Z,0.00
2023-07-06T03:03:25.395Z,0.00
2023-07-06T03:04:25.418Z,0.00
2023-07-06T03:05:25.394Z,0.00
2023-07-06T03:06:25.377Z,0.00
2023-07-06T03:07:25.394Z,0.00
2023-07-06T03:08:25.362Z,0.00
2023-07-06T03:09:25.316Z,0.00
2023-07-06T03:10:25.321Z,0.00
2023-07-06T03:11:25.405Z,0.00
2023-07-06T03:12:25.298Z,0.00
2023-07-06T03:13:25.350Z,0.00
2023-07-06T03:14:25.319Z,0.00
2023-07-06T03:15:25.258Z,0.00
2023-07-06T03:16:25.359Z,0.00
2023-07-06T03:17:25.938Z,0.00
2023-07-06T03:18:25.350Z,0.00
2023-07-06T03:19:25.219Z,0.00
2023-07-06T03:20:25.215Z,0.00
2023-07-06T03:21:32.696Z,0.00
2023-07-06T03:22:25.190Z,0.00
2023-07-06T03:23:25.178Z,0.00
2023-07-06T03:24:25.198Z,0.00
2023-07-06T03:25:25.160Z,0.00
2023-07-06T03:26:25.179Z,0.00
2023-07-06T03:27:25.206Z,0.00
2023-07-06T03:28:25.196Z,0.00
2023-07-06T03:29:25.135Z,0.00
2023-07-06T03:30:25.133Z,0.00
2023-07-06T03:31:25.115Z,0.00
2023-07-06T03:32:25.120Z,0.00
2023-07-06T03:33:25.083Z,0.00
2023-07-06T03:34:25.066Z,0.00
2023-07-06T03:35:25.231Z,0.00
2023-07-06T03:36:25.041Z,0.00
2023-07-06T03:37:25.022Z,0.00
2023-07-06T03:38:25.008Z,0.00
2023-07-06T03:39:25.011Z,0.00
2023-07-06T03:40:24.999Z,0.00
2023-07-06T03:41:25.012Z,0.00
2023-07-06T03:42:24.971Z,0.00
2023-07-06T03:43:24.967Z,0.00
2023-07-06T03:44:24.960Z,0.00
2023-07-06T03:45:24.948Z,0.00
2023-07-06T03:46:25.056Z,0.00
2023-07-06T03:47:24.945Z,0.00
2023-07-06T03:48:24.901Z,0.00
2023-07-06T03:49:24.882Z,0.00
2023-07-06T03:50:24.896Z,0.00
2023-07-06T03:51:24.928Z,0.00
2023-07-06T03:52:24.850Z,0.00
2023-07-06T03:53:24.847Z,0.00
2023-07-06T03:54:24.871Z,0.00
2023-07-06T03:55:24.823Z,0.00
2023-07-06T03:56:24.948Z,0.00
2023-07-06T03:57:24.818Z,0.00
2023-07-06T03:58:24.810Z,0.00
2023-07-06T03:59:24.780Z,0.00
2023-07-06T04:00:24.779Z,0.00
2023-07-06T04:01:24.801Z,0.00
2023-07-06T04:02:24.760Z,0.00
2023-07-06T04:03:24.787Z,0.00
2023-07-06T04:04:24.751Z,0.00
2023-07-06T04:05:24.724Z,0.00
2023-07-06T04:06:24.748Z,0.00
2023-07-06T04:07:24.692Z,0.00
2023-07-06T04:08:24.685Z,0.00
2023-07-06T04:09:24.714Z,0.00
2023-07-06T04:10:24.666Z,0.00
2023-07-06T04:11:24.660Z,0.00
2023-07-06T04:12:24.664Z,0.00
2023-07-06T04:13:24.643Z,0.00
2023-07-06T04:14:24.623Z,0.00
2023-07-06T04:15:24.651Z,0.00
2023-07-06T04:16:24.822Z,0.00
2023-07-06T04:17:24.646Z,0.00
2023-07-06T04:18:24.599Z,0.00
2023-07-06T04:19:24.589Z,0.00
2023-07-06T04:20:24.604Z,0.00
2023-07-06T04:21:24.616Z,0.00
2023-07-06T04:22:24.570Z,0.00
2023-07-06T04:23:24.552Z,0.00
2023-07-06T04:24:24.553Z,0.00
2023-07-06T04:25:24.502Z,0.00
2023-07-06T04:26:24.545Z,0.00
2023-07-06T04:27:24.510Z,0.00
2023-07-06T04:28:24.497Z,0.00
2023-07-06T04:29:24.459Z,0.00
2023-07-06T04:30:24.472Z,0.00
2023-07-06T04:31:24.529Z,0.00
2023-07-06T04:32:24.488Z,0.00
2023-07-06T04:33:24.457Z,0.00
2023-07-06T04:34:24.412Z,0.00
2023-07-06T04:35:24.410Z,0.00
2023-07-06T04:36:24.443Z,0.00
2023-07-06T04:37:24.391Z,0.00
2023-07-06T04:38:24.431Z,0.00
2023-07-06T04:39:24.392Z,0.00
2023-07-06T04:40:24.364Z,0.00
2023-07-06T04:41:24.348Z,0.00
2023-07-06T04:42:24.341Z,0.00
2023-07-06T04:43:24.332Z,0.00
2023-07-06T04:44:24.327Z,0.00
2023-07-06T04:45:24.295Z,0.00
2023-07-06T04:46:24.291Z,0.00
2023-07-06T04:47:24.313Z,0.00
2023-07-06T04:48:25.711Z,0.00
2023-07-06T04:49:24.260Z,0.00
2023-07-06T04:50:24.332Z,0.00
2023-07-06T04:51:24.264Z,0.00
2023-07-06T04:52:24.236Z,0.00
2023-07-06T04:53:24.229Z,0.00
2023-07-06T04:54:24.195Z,0.00
2023-07-06T04:55:24.206Z,0.00
2023-07-06T04:56:24.186Z,0.00
2023-07-06T04:57:24.209Z,0.00
2023-07-06T04:58:24.166Z,0.00
2023-07-06T04:59:24.164Z,0.00
2023-07-06T05:00:24.149Z,0.00
2023-07-06T05:01:24.205Z,0.00
2023-07-06T05:02:24.173Z,0.00
2023-07-06T05:03:24.211Z,0.00
2023-07-06T05:04:24.184Z,0.00
2023-07-06T05:05:24.069Z,0.00
2023-07-06T05:06:24.088Z,0.00
2023-07-06T05:07:24.048Z,0.00
2023-07-06T05:08:24.067Z,0.00
2023-07-06T05:09:24.327Z,0.00
2023-07-06T05:10:24.017Z,0.00
2023-07-06T05:11:24.049Z,0.00
2023-07-06T05:12:24.002Z,0.00
2023-07-06T05:13:24.054Z,0.00
2023-07-06T05:14:23.985Z,0.00
2023-07-06T05:15:23.996Z,0.00
2023-07-06T05:16:24.054Z,0.00
2023-07-06T05:17:23.977Z,0.00
2023-07-06T05:18:23.975Z,0.00
2023-07-06T05:19:23.942Z,0.00
2023-07-06T05:20:23.983Z,0.00
2023-07-06T05:21:23.894Z,0.00
2023-07-06T05:22:23.880Z,0.00
2023-07-06T05:23:23.912Z,0.00
2023-07-06T05:24:23.929Z,0.00
2023-07-06T05:25:23.893Z,0.00
2023-07-06T05:26:23.844Z,0.00
2023-07-06T05:27:23.862Z,0.00
2023-07-06T05:28:23.825Z,0.00
2023-07-06T05:29:23.839Z,0.00
2023-07-06T05:30:23.813Z,0.00
2023-07-06T05:31:23.889Z,0.00
2023-07-06T05:32:23.876Z,0.00
2023-07-06T05:33:23.851Z,0.00
2023-07-06T05:34:23.749Z,0.00
2023-07-06T05:35:23.749Z,0.00
2023-07-06T05:36:23.734Z,0.00
2023-07-06T05:37:35.299Z,0.00
2023-07-06T05:38:24.768Z,0.00
2023-07-06T05:39:23.722Z,0.00
2023-07-06T05:40:23.716Z,0.00
2023-07-06T05:41:23.685Z,0.00
2023-07-06T05:42:23.684Z,0.00
2023-07-06T05:43:23.679Z,0.00
2023-07-06T05:44:23.704Z,0.00
2023-07-06T05:45:23.670Z,0.00
2023-07-06T05:46:23.715Z,0.00
2023-07-06T05:47:23.717Z,0.00
2023-07-06T05:48:23.646Z,0.00
2023-07-06T05:49:23.628Z,0.00
2023-07-06T05:50:23.575Z,0.00
2023-07-06T05:51:23.577Z,0.00
2023-07-06T05:52:23.621Z,0.00
2023-07-06T05:53:23.557Z,0.00
2023-07-06T05:54:23.562Z,0.00
2023-07-06T05:55:23.564Z,0.00
2023-07-06T05:56:23.530Z,0.00
2023-07-06T05:57:23.499Z,0.00
2023-07-06T05:58:23.541Z,0.00
2023-07-06T05:59:23.514Z,0.00
2023-07-06T06:00:23.485Z,0.00
2023-07-06T06:01:23.456Z,0.00
2023-07-06T06:02:23.664Z,0.00
2023-07-06T06:03:23.480Z,0.00
2023-07-06T06:04:23.474Z,0.00
2023-07-06T06:05:23.431Z,0.00
2023-07-06T06:06:23.398Z,0.00
2023-07-06T06:07:23.401Z,0.00
2023-07-06T06:08:23.407Z,0.00
2023-07-06T06:09:23.416Z,0.00
2023-07-06T06:10:23.356Z,0.00
2023-07-06T06:11:23.345Z,0.00
2023-07-06T06:12:23.354Z,0.00
2023-07-06T06:13:23.368Z,0.00
2023-07-06T06:14:23.309Z,0.00
2023-07-06T06:15:23.383Z,0.00
2023-07-06T06:16:23.356Z,0.00
2023-07-06T06:17:23.345Z,0.00
2023-07-06T06:18:23.281Z,0.00
2023-07-06T06:19:23.974Z,0.00
2023-07-06T06:20:23.375Z,0.00
2023-07-06T06:21:23.292Z,0.00
2023-07-06T06:22:23.257Z,0.00
2023-07-06T06:23:23.217Z,0.00
2023-07-06T06:24:23.236Z,0.00
2023-07-06T06:25:23.276Z,0.00
2023-07-06T06:26:23.474Z,0.00
2023-07-06T06:27:23.177Z,0.00
2023-07-06T06:28:23.204Z,0.00
2023-07-06T06:29:23.167Z,0.00
2023-07-06T06:30:23.140Z,0.00
2023-07-06T06:31:23.158Z,0.00
2023-07-06T06:32:23.156Z,0.00
2023-07-06T06:33:23.132Z,0.00
2023-07-06T06:34:23.139Z,0.00
2023-07-06T06:35:23.241Z,0.00
2023-07-06T06:36:23.103Z,0.00
2023-07-06T06:37:23.071Z,0.00
2023-07-06T06:38:23.056Z,0.00
2023-07-06T06:39:23.061Z,0.00
2023-07-06T06:40:23.078Z,0.00
2023-07-06T06:41:23.055Z,0.00
2023-07-06T06:42:23.033Z,0.00
2023-07-06T06:43:23.011Z,0.00
2023-07-06T06:44:23.002Z,0.00
2023-07-06T06:45:23.019Z,0.00
2023-07-06T06:46:28.042Z,0.00
2023-07-06T06:47:23.013Z,0.10
2023-07-06T06:48:22.962Z,0.10
2023-07-06T06:49:22.943Z,0.10
2023-07-06T06:50:22.940Z,0.10
2023-07-06T06:51:22.954Z,0.10
2023-07-06T06:52:22.928Z,0.10
2023-07-06T06:53:22.903Z,0.10
2023-07-06T06:54:22.902Z,0.10
2023-07-06T06:55:22.885Z,0.10
2023-07-06T06:56:22.909Z,0.10
2023-07-06T06:57:22.883Z,0.10
2023-07-06T06:58:22.872Z,0.10
2023-07-06T06:59:22.843Z,0.10
2023-07-06T07:00:23.476Z,0.10
2023-07-06T07:01:22.868Z,0.10
2023-07-06T07:02:22.826Z,0.10
2023-07-06T07:03:22.826Z,0.10
2023-07-06T07:04:22.812Z,0.10
2023-07-06T07:05:22.787Z,0.10
2023-07-06T07:06:22.767Z,0.10
2023-07-06T07:07:22.749Z,0.10
2023-07-06T07:08:22.786Z,0.10
2023-07-06T07:09:22.718Z,0.20
2023-07-06T07:10:22.725Z,0.10
2023-07-06T07:11:24.233Z,0.10
2023-07-06T07:12:22.691Z,0.10
2023-07-06T07:13:22.759Z,0.10
2023-07-06T07:14:22.668Z,0.10
2023-07-06T07:15:22.667Z,0.10
2023-07-06T07:16:27.575Z,0.10
2023-07-06T07:17:23.103Z,0.10
2023-07-06T07:18:22.622Z,0.10
2023-07-06T07:19:22.624Z,0.10
2023-07-06T07:20:22.604Z,0.10
2023-07-06T07:21:22.632Z,0.10
2023-07-06T07:22:22.611Z,0.10
2023-07-06T07:23:22.601Z,0.20
2023-07-06T07:24:22.594Z,0.20
2023-07-06T07:25:22.580Z,0.20
2023-07-06T07:26:22.539Z,0.20
2023-07-06T07:27:22.540Z,0.20
2023-07-06T07:28:22.523Z,0.30
2023-07-06T07:29:22.518Z,0.30
2023-07-06T07:30:22.500Z,0.30
2023-07-06T07:31:22.597Z,0.40
2023-07-06T07:32:22.480Z,0.30
2023-07-06T07:33:22.465Z,0.30
2023-07-06T07:34:22.485Z,0.20
2023-07-06T07:35:22.457Z,0.30
2023-07-06T07:36:22.436Z,0.40
2023-07-06T07:37:22.589Z,0.30
2023-07-06T07:38:22.423Z,0.20
2023-07-06T07:39:22.416Z,0.30
2023-07-06T07:40:22.423Z,0.30
2023-07-06T07:41:22.407Z,0.30
2023-07-06T07:42:22.377Z,0.30
2023-07-06T07:43:22.393Z,0.20
2023-07-06T07:44:22.370Z,0.30
2023-07-06T07:45:22.361Z,0.20
2023-07-06T07:46:27.099Z,0.20
2023-07-06T07:47:22.363Z,0.30
2023-07-06T07:48:22.848Z,0.20
2023-07-06T07:49:22.300Z,0.30
2023-07-06T07:50:22.348Z,0.30
2023-07-06T07:51:22.287Z,0.30
2023-07-06T07:52:22.309Z,0.30
2023-07-06T07:53:22.260Z,0.40
2023-07-06T07:54:22.249Z,0.30
2023-07-06T07:55:22.238Z,0.30
2023-07-06T07:56:22.280Z,0.30
2023-07-06T07:57:22.258Z,0.30
2023-07-06T07:58:22.214Z,0.30
2023-07-06T07:59:22.219Z,0.30
2023-07-06T08:00:22.245Z,0.20
2023-07-06T08:01:22.474Z,0.30
2023-07-06T08:02:22.310Z,0.30
2023-07-06T08:03:22.189Z,0.30
2023-07-06T08:04:22.180Z,0.30
2023-07-06T08:05:22.172Z,0.30
2023-07-06T08:06:22.123Z,0.30
2023-07-06T08:07:22.171Z,0.30
2023-07-06T08:08:22.103Z,0.40
2023-07-06T08:09:22.119Z,0.40
2023-07-06T08:10:22.201Z,0.40
2023-07-06T08:11:22.155Z,0.40
2023-07-06T08:12:22.097Z,0.40
2023-07-06T08:13:22.055Z,0.30
2023-07-06T08:14:22.034Z,0.30
2023-07-06T08:15:22.036Z,0.40
2023-07-06T08:16:27.058Z,0.40
2023-07-06T08:17:22.110Z,0.30
2023-07-06T08:18:22.002Z,0.30
2023-07-06T08:19:39.707Z,0.30
2023-07-06T08:20:51.043Z,0.30
2023-07-06T08:21:37.119Z,0.30
2023-07-06T08:22:29.814Z,0.20
2023-07-06T08:23:21.997Z,0.20
2023-07-06T08:24:22.109Z,0.30
2023-07-06T08:25:21.948Z,0.20
2023-07-06T08:26:21.921Z,0.10
2023-07-06T08:27:23.444Z,0.10
2023-07-06T08:28:22.008Z,0.20
2023-07-06T08:29:21.896Z,0.20
2023-07-06T08:30:21.885Z,0.40
2023-07-06T08:31:21.916Z,0.40
2023-07-06T08:32:21.956Z,0.40
2023-07-06T08:33:21.869Z,0.40
2023-07-06T08:34:22.075Z,0.50
2023-07-06T08:35:21.830Z,0.50
2023-07-06T08:36:21.939Z,0.70
2023-07-06T08:37:21.833Z,0.60
2023-07-06T08:38:21.784Z,0.80
2023-07-06T08:39:21.811Z,0.70
2023-07-06T08:40:21.803Z,0.80
2023-07-06T08:41:21.770Z,1.00
2023-07-06T08:42:21.754Z,0.90
2023-07-06T08:43:21.775Z,0.80
2023-07-06T08:44:21.773Z,0.90
2023-07-06T08:45:21.744Z,0.90
2023-07-06T08:46:26.674Z,1.20
2023-07-06T08:47:21.768Z,1.30
2023-07-06T08:48:21.720Z,1.50
2023-07-06T08:49:21.675Z,1.60
2023-07-06T08:50:21.692Z,1.70
2023-07-06T08:51:21.710Z,1.70
2023-07-06T08:52:21.662Z,2.00
2023-07-06T08:53:21.640Z,2.20
2023-07-06T08:54:21.620Z,2.30
2023-07-06T08:55:23.048Z,2.30
2023-07-06T08:56:21.636Z,2.20
2023-07-06T08:57:21.626Z,1.90
2023-07-06T08:58:21.617Z,2.00
2023-07-06T08:59:21.625Z,2.30
2023-07-06T09:00:21.583Z,2.10
2023-07-06T09:01:22.826Z,1.70
2023-07-06T09:02:21.651Z,1.70
2023-07-06T09:03:21.658Z,1.50
2023-07-06T09:04:21.537Z,1.50
2023-07-06T09:05:21.539Z,1.30
2023-07-06T09:06:21.519Z,1.30
2023-07-06T09:07:21.513Z,1.30
2023-07-06T09:08:21.515Z,1.10
2023-07-06T09:09:21.493Z,1.00
2023-07-06T09:10:25.071Z,1.20
2023-07-06T09:11:22.359Z,0.90
2023-07-06T09:12:21.443Z,0.90
2023-07-06T09:13:21.469Z,0.90
2023-07-06T09:14:21.684Z,0.90
2023-07-06T09:15:21.406Z,1.00
2023-07-06T09:16:21.565Z,1.10
2023-07-06T09:17:21.456Z,1.20
2023-07-06T09:18:21.377Z,1.50
2023-07-06T09:19:21.404Z,1.30
2023-07-06T09:20:21.365Z,1.20
2023-07-06T09:21:21.359Z,1.90
2023-07-06T09:22:21.340Z,1.50
2023-07-06T09:23:21.364Z,1.60
2023-07-06T09:24:21.324Z,1.40
2023-07-06T09:25:21.360Z,1.50
2023-07-06T09:26:32.921Z,1.70
2023-07-06T09:27:22.328Z,1.70
2023-07-06T09:28:21.325Z,1.70
2023-07-06T09:29:21.340Z,1.60
2023-07-06T09:30:21.287Z,1.50
2023-07-06T09:31:21.445Z,1.30
2023-07-06T09:32:21.262Z,1.30
2023-07-06T09:33:21.245Z,1.00
2023-07-06T09:34:21.232Z,1.00
2023-07-06T09:35:21.295Z,0.80
2023-07-06T09:36:21.209Z,0.70
2023-07-06T09:37:21.252Z,0.60
2023-07-06T09:38:21.219Z,0.70
2023-07-06T09:39:21.205Z,1.20
2023-07-06T09:40:21.180Z,1.60
2023-07-06T09:41:21.194Z,0.80
2023-07-06T09:42:21.181Z,0.70
2023-07-06T09:43:21.148Z,0.80
2023-07-06T09:44:21.253Z,0.70
2023-07-06T09:45:21.127Z,0.70
2023-07-06T09:46:21.222Z,0.60
2023-07-06T09:47:21.140Z,0.50
2023-07-06T09:48:21.140Z,0.60
2023-07-06T09:49:21.097Z,0.60
2023-07-06T09:50:21.142Z,0.50
2023-07-06T09:51:21.058Z,0.60
2023-07-06T09:52:21.047Z,0.50
2023-07-06T09:53:21.054Z,0.50
2023-07-06T09:54:21.039Z,0.50
2023-07-06T09:55:21.116Z,0.70
2023-07-06T09:56:21.006Z,0.50
2023-07-06T09:57:21.010Z,0.60
2023-07-06T09:58:20.983Z,0.50
2023-07-06T09:59:21.043Z,0.40
2023-07-06T10:00:21.031Z,0.50
2023-07-06T10:01:20.979Z,0.50
2023-07-06T10:02:21.038Z,0.40
2023-07-06T10:03:20.948Z,1.10
2023-07-06T10:04:20.981Z,1.40
2023-07-06T10:05:20.969Z,1.50
2023-07-06T10:06:20.946Z,1.40
2023-07-06T10:07:20.902Z,1.20
2023-07-06T10:08:20.981Z,1.00
2023-07-06T10:09:20.874Z,0.80
2023-07-06T10:10:20.908Z,1.20
2023-07-06T10:11:20.884Z,0.80
2023-07-06T10:12:20.900Z,0.70
2023-07-06T10:13:20.833Z,0.80
2023-07-06T10:14:20.818Z,0.80
2023-07-06T10:15:20.807Z,0.80
2023-07-06T10:16:25.778Z,0.70
2023-07-06T10:17:20.850Z,1.10
2023-07-06T10:18:20.778Z,1.50
2023-07-06T10:19:20.774Z,1.80
2023-07-06T10:20:20.828Z,1.00
2023-07-06T10:21:20.768Z,1.20
2023-07-06T10:22:20.768Z,1.70
2023-07-06T10:23:20.736Z,2.20
2023-07-06T10:24:20.724Z,2.20
2023-07-06T10:25:20.746Z,2.80
2023-07-06T10:26:20.776Z,2.70
2023-07-06T10:27:20.791Z,3.00
2023-07-06T10:28:20.775Z,3.20
2023-07-06T10:29:20.740Z,3.80
2023-07-06T10:30:20.678Z,4.00
2023-07-06T10:31:20.689Z,4.30
2023-07-06T10:32:20.686Z,4.40
2023-07-06T10:33:20.655Z,4.50
2023-07-06T10:34:20.642Z,4.90
2023-07-06T10:35:20.644Z,4.90
2023-07-06T10:36:20.675Z,4.90
2023-07-06T10:37:20.638Z,4.50
2023-07-06T10:38:20.589Z,5.30
2023-07-06T10:39:20.617Z,5.40
2023-07-06T10:40:20.561Z,3.80
2023-07-06T10:41:20.556Z,3.00
2023-07-06T10:42:20.550Z,2.50
2023-07-06T10:43:20.566Z,1.90
2023-07-06T10:44:20.525Z,1.40
2023-07-06T10:45:20.606Z,1.10
2023-07-06T10:46:20.675Z,1.00
2023-07-06T10:47:20.574Z,0.70
2023-07-06T10:48:20.535Z,1.00
2023-07-06T10:49:20.473Z,0.60
2023-07-06T10:50:20.466Z,1.00
2023-07-06T10:51:20.455Z,0.50
2023-07-06T10:52:20.479Z,0.50
2023-07-06T10:53:20.447Z,0.50
2023-07-06T10:54:20.529Z,1.60
2023-07-06T10:55:20.421Z,1.30
2023-07-06T10:56:20.411Z,1.70
2023-07-06T10:57:20.424Z,1.90
2023-07-06T10:58:20.383Z,1.90
2023-07-06T10:59:20.401Z,1.70
2023-07-06T11:00:20.400Z,1.10
2023-07-06T11:01:20.411Z,1.10
2023-07-06T11:02:20.369Z,2.20
2023-07-06T11:03:20.777Z,2.60
2023-07-06T11:04:20.334Z,2.50
2023-07-06T11:05:20.362Z,2.80
2023-07-06T11:06:20.299Z,3.00
2023-07-06T11:07:21.141Z,3.20
2023-07-06T11:08:20.368Z,3.50
2023-07-06T11:09:20.305Z,3.80
2023-07-06T11:10:20.267Z,3.90
2023-07-06T11:11:20.294Z,4.00
2023-07-06T11:12:20.281Z,4.40
2023-07-06T11:13:20.349Z,5.10
2023-07-06T11:14:20.261Z,5.20
2023-07-06T11:15:20.217Z,5.70
2023-07-06T11:16:20.388Z,5.70
2023-07-06T11:17:20.256Z,5.90
2023-07-06T11:18:20.291Z,6.60
2023-07-06T11:19:20.167Z,6.60
2023-07-06T11:20:20.255Z,4.20
2023-07-06T11:21:22.033Z,5.10
2023-07-06T11:22:20.152Z,3.20
2023-07-06T11:23:20.132Z,2.40
2023-07-06T11:24:20.147Z,2.00
2023-07-06T11:25:20.137Z,1.40
2023-07-06T11:26:21.146Z,1.20
2023-07-06T11:27:21.046Z,1.10
2023-07-06T11:28:21.170Z,0.80
2023-07-06T11:29:20.089Z,0.80
2023-07-06T11:30:20.080Z,0.80
2023-07-06T11:31:20.096Z,0.60
2023-07-06T11:32:20.107Z,0.60
2023-07-06T11:33:20.057Z,0.60
2023-07-06T11:34:20.062Z,0.70
2023-07-06T11:35:20.012Z,0.60
2023-07-06T11:36:20.038Z,0.60
2023-07-06T11:37:20.043Z,0.60
2023-07-06T11:38:20.023Z,0.50
2023-07-06T11:39:19.999Z,0.40
2023-07-06T11:40:19.980Z,0.50
2023-07-06T11:41:19.953Z,0.40
2023-07-06T11:42:20.033Z,0.40
2023-07-06T11:43:19.938Z,0.40
2023-07-06T11:44:19.925Z,0.30
2023-07-06T11:45:21.547Z,0.30
2023-07-06T11:46:20.040Z,0.40
2023-07-06T11:47:19.955Z,0.40
2023-07-06T11:48:19.967Z,0.40
2023-07-06T11:49:19.866Z,0.30
2023-07-06T11:50:19.863Z,0.40
2023-07-06T11:51:20.725Z,0.60
2023-07-06T11:52:19.881Z,1.10
2023-07-06T11:53:19.874Z,0.40
2023-07-06T11:54:19.888Z,0.40
2023-07-06T11:55:19.818Z,0.40
2023-07-06T11:56:19.884Z,1.40
2023-07-06T11:57:19.826Z,1.00
2023-07-06T11:58:19.775Z,0.50
2023-07-06T11:59:19.760Z,0.70
2023-07-06T12:00:19.848Z,0.60
2023-07-06T12:01:19.788Z,0.60
2023-07-06T12:02:19.806Z,1.00
2023-07-06T12:03:19.788Z,0.50
2023-07-06T12:04:19.746Z,0.50
2023-07-06T12:05:21.090Z,0.40
2023-07-06T12:06:20.759Z,0.40
2023-07-06T12:07:19.746Z,0.40
2023-07-06T12:08:19.758Z,0.30
2023-07-06T12:09:19.721Z,0.30
2023-07-06T12:10:19.674Z,0.30
2023-07-06T12:11:19.641Z,0.20
2023-07-06T12:12:19.844Z,0.20
2023-07-06T12:13:21.299Z,0.30
2023-07-06T12:14:19.611Z,0.30
2023-07-06T12:15:19.603Z,0.20
2023-07-06T12:16:24.839Z,0.20
2023-07-06T12:17:19.576Z,0.20
2023-07-06T12:18:19.654Z,0.20
2023-07-06T12:19:19.574Z,0.20
2023-07-06T12:20:19.555Z,0.20
2023-07-06T12:21:19.547Z,0.20
2023-07-06T12:22:19.599Z,0.30
2023-07-06T12:23:20.062Z,0.90
2023-07-06T12:24:19.507Z,0.80
2023-07-06T12:25:19.503Z,0.70
2023-07-06T12:26:19.498Z,0.30
2023-07-06T12:27:19.480Z,0.30
2023-07-06T12:28:19.530Z,0.40
2023-07-06T12:29:19.460Z,0.20
2023-07-06T12:30:19.468Z,0.30
2023-07-06T12:31:19.450Z,0.20
2023-07-06T12:32:19.423Z,0.30
2023-07-06T12:33:19.443Z,0.20
2023-07-06T12:34:19.418Z,0.20
2023-07-06T12:35:19.388Z,0.20
2023-07-06T12:36:19.388Z,0.30
2023-07-06T12:37:19.381Z,0.20
2023-07-06T12:38:19.404Z,0.90
2023-07-06T12:39:19.411Z,1.10
2023-07-06T12:40:19.374Z,1.50
2023-07-06T12:41:19.443Z,1.60
2023-07-06T12:42:19.328Z,1.10
2023-07-06T12:43:19.349Z,1.70
2023-07-06T12:44:19.329Z,0.80
2023-07-06T12:45:19.332Z,0.70
2023-07-06T12:46:19.372Z,0.60
2023-07-06T12:47:19.356Z,0.60
2023-07-06T12:48:19.261Z,1.70
2023-07-06T12:49:19.366Z,0.50
2023-07-06T12:50:19.253Z,1.40
2023-07-06T12:51:19.241Z,1.40
2023-07-06T12:52:19.214Z,0.50
2023-07-06T12:53:19.263Z,0.40
2023-07-06T12:54:19.209Z,0.40
2023-07-06T12:55:19.238Z,0.30
2023-07-06T12:56:19.199Z,0.40
2023-07-06T12:57:19.164Z,0.30
2023-07-06T12:58:19.155Z,0.30
2023-07-06T12:59:19.164Z,0.30
2023-07-06T13:00:19.160Z,0.30
2023-07-06T13:01:19.298Z,1.00
2023-07-06T13:02:19.210Z,1.30
2023-07-06T13:03:19.145Z,1.10
2023-07-06T13:04:19.100Z,1.30
2023-07-06T13:05:19.179Z,1.70
2023-07-06T13:06:19.088Z,1.10
2023-07-06T13:07:19.128Z,1.40
2023-07-06T13:08:19.057Z,1.90
2023-07-06T13:09:19.047Z,1.90
2023-07-06T13:10:19.033Z,2.40
2023-07-06T13:11:19.041Z,2.40
2023-07-06T13:12:19.028Z,2.70
2023-07-06T13:13:19.056Z,2.40
2023-07-06T13:14:19.004Z,1.40
2023-07-06T13:15:19.096Z,3.10
2023-07-06T13:16:19.111Z,1.10
2023-07-06T13:17:19.029Z,1.20
2023-07-06T13:18:19.044Z,2.40